Time;durP1;ratioP1;P1;durP2;ratioP2;P2;SDS_P1;SDS_P2;PMS_P1;PMS_P2;Temp;Humidity;BMP_temperature;BMP_pressure;BME280_temperature;BME280_humidity;BME280_pressure;Samples;Min_cycle;Max_cycle;Signal;HPM_P1;HPM_P2
2021/10/26 00:01:41;;;;;;;20.42;11.73;;;;;;;;;;5007738;28;20197;-69
2021/10/26 00:04:08;;;;;;;16.40;9.80;;;;;;;;;;5006038;28;20206;-70
2021/10/26 00:06:35;;;;;;;16.20;10.60;;;;;;;;;;5006872;28;20452;-69
2021/10/26 00:09:05;;;;;;;15.40;10.18;;;;;;;;;;5007861;28;20233;-69
2021/10/26 00:11:32;;;;;;;22.38;10.20;;;;;;;;;;5026709;28;20287;-68
2021/10/26 00:14:01;;;;;;;105.20;60.33;;;;;;;;;;5026704;28;20210;-68
2021/10/26 00:16:28;;;;;;;21.20;12.67;;;;;;;;;;5004357;28;21684;-69
2021/10/26 00:18:55;;;;;;;17.98;10.65;;;;;;;;;;5029432;28;20447;-67
2021/10/26 00:21:22;;;;;;;22.02;10.82;;;;;;;;;;5029492;28;21045;-66
2021/10/26 00:23:48;;;;;;;20.45;11.40;;;;;;;;;;5025189;28;20194;-67
2021/10/26 00:26:16;;;;;;;16.13;9.77;;;;;;;;;;5021039;28;20612;-67
2021/10/26 00:28:43;;;;;;;17.53;10.47;;;;;;;;;;5007534;28;20204;-65
2021/10/26 00:31:10;;;;;;;18.83;10.10;;;;;;;;;;5009093;28;20507;-66
2021/10/26 00:33:37;;;;;;;19.42;10.80;;;;;;;;;;5019981;28;20441;-66
2021/10/26 00:36:04;;;;;;;18.73;10.70;;;;;;;;;;5018197;28;20194;-67
2021/10/26 00:38:31;;;;;;;15.23;9.93;;;;;;;;;;5030062;28;20203;-67
2021/10/26 00:40:59;;;;;;;16.20;10.70;;;;;;;;;;5015440;28;20703;-69
2021/10/26 00:43:26;;;;;;;16.15;10.40;;;;;;;;;;5028488;28;20682;-68
2021/10/26 00:45:53;;;;;;;19.55;10.60;;;;;;;;;;5011439;28;20204;-67
2021/10/26 00:48:20;;;;;;;13.13;9.95;;;;;;;;;;5008702;28;20260;-68
2021/10/26 00:50:47;;;;;;;15.02;9.95;;;;;;;;;;5014063;28;20232;-66
2021/10/26 00:53:16;;;;;;;19.65;11.07;;;;;;;;;;5001917;28;20204;-69
2021/10/26 00:55:48;;;;;;;20.42;10.60;;;;;;;;;;5007249;28;20215;-66
2021/10/26 00:58:16;;;;;;;16.13;10.73;;;;;;;;;;5014380;28;20222;-66
2021/10/26 01:00:45;;;;;;;16.70;10.07;;;;;;;;;;5013110;28;20280;-69
2021/10/26 01:03:12;;;;;;;16.30;10.40;;;;;;;;;;5015562;28;20304;-70
2021/10/26 01:05:45;;;;;;;17.48;10.07;;;;;;;;;;5015462;28;20196;-67
2021/10/26 01:08:12;;;;;;;18.23;10.45;;;;;;;;;;5016495;28;20233;-68
2021/10/26 01:10:39;;;;;;;16.27;10.53;;;;;;;;;;5015065;28;20225;-66
2021/10/26 01:13:06;;;;;;;17.42;10.90;;;;;;;;;;5014440;28;21025;-69
2021/10/26 01:15:34;;;;;;;19.13;10.65;;;;;;;;;;5024347;28;21158;-69
2021/10/26 01:18:17;;;;;;;17.27;10.57;;;;;;;;;;5012787;28;20236;-70
2021/10/26 01:20:45;;;;;;;14.40;10.52;;;;;;;;;;4999047;28;20210;-68
2021/10/26 01:23:12;;;;;;;17.20;10.45;;;;;;;;;;5008231;28;20197;-68
2021/10/26 01:25:41;;;;;;;15.95;10.80;;;;;;;;;;5009236;28;20440;-70
2021/10/26 01:28:08;;;;;;;16.73;11.02;;;;;;;;;;5014534;28;20197;-69
2021/10/26 01:30:38;;;;;;;16.60;10.88;;;;;;;;;;5022201;28;20216;-69
2021/10/26 01:33:29;;;;;;;19.05;11.20;;;;;;;;;;5022980;28;20228;-67
2021/10/26 01:36:09;;;;;;;15.70;10.52;;;;;;;;;;5019984;28;20533;-68
2021/10/26 01:38:36;;;;;;;23.50;11.07;;;;;;;;;;5025246;28;20205;-66
2021/10/26 01:41:03;;;;;;;17.17;10.57;;;;;;;;;;5026392;28;20201;-66
2021/10/26 01:43:31;;;;;;;17.80;10.93;;;;;;;;;;5026809;28;20197;-70
2021/10/26 01:45:58;;;;;;;17.33;11.20;;;;;;;;;;5006436;28;20470;-67
2021/10/26 01:48:32;;;;;;;19.35;11.55;;;;;;;;;;5003204;28;20318;-67
2021/10/26 01:51:01;;;;;;;18.45;11.68;;;;;;;;;;5001104;28;20901;-67
2021/10/26 01:53:28;;;;;;;16.23;10.95;;;;;;;;;;5008280;28;20209;-66
2021/10/26 01:55:55;;;;;;;18.25;11.57;;;;;;;;;;5005291;28;20205;-66
2021/10/26 01:58:32;;;;;;;15.25;11.32;;;;;;;;;;5019205;28;20601;-66
2021/10/26 02:01:20;;;;;;;17.20;11.47;;;;;;;;;;5028218;28;20559;-69
2021/10/26 02:03:48;;;;;;;18.85;12.07;;;;;;;;;;5035229;28;20445;-67
2021/10/26 02:06:16;;;;;;;18.95;11.48;;;;;;;;;;5031648;28;20221;-66
2021/10/26 02:08:43;;;;;;;20.77;12.50;;;;;;;;;;5018569;28;20762;-68
2021/10/26 02:11:10;;;;;;;17.52;12.13;;;;;;;;;;5039450;28;20213;-67
2021/10/26 02:13:39;;;;;;;19.27;12.33;;;;;;;;;;5030542;28;20200;-67
2021/10/26 02:16:06;;;;;;;20.63;11.77;;;;;;;;;;5023735;28;20497;-66
2021/10/26 02:18:33;;;;;;;15.20;11.45;;;;;;;;;;5028889;28;20202;-69
2021/10/26 02:21:01;;;;;;;18.42;11.93;;;;;;;;;;5007052;28;20193;-67
2021/10/26 02:23:28;;;;;;;16.45;11.73;;;;;;;;;;5032560;28;20209;-68
2021/10/26 02:25:55;;;;;;;20.83;11.63;;;;;;;;;;5021251;28;20192;-67
2021/10/26 02:28:22;;;;;;;18.05;11.48;;;;;;;;;;5030329;28;20209;-66
2021/10/26 02:30:50;;;;;;;18.08;11.57;;;;;;;;;;5025963;28;20735;-67
2021/10/26 02:33:17;;;;;;;20.73;12.07;;;;;;;;;;5030327;28;20293;-68
2021/10/26 02:35:45;;;;;;;18.60;12.45;;;;;;;;;;5024189;28;20316;-67
2021/10/26 02:38:12;;;;;;;17.00;12.30;;;;;;;;;;5012074;28;20205;-69
2021/10/26 02:40:39;;;;;;;19.92;12.13;;;;;;;;;;5007314;28;20202;-68
2021/10/26 02:43:07;;;;;;;18.50;12.00;;;;;;;;;;5011598;28;20193;-66
2021/10/26 02:45:34;;;;;;;18.52;11.50;;;;;;;;;;5012295;28;20189;-67
2021/10/26 02:48:05;;;;;;;17.13;11.00;;;;;;;;;;5018050;28;20197;-68
2021/10/26 02:50:32;;;;;;;20.48;10.98;;;;;;;;;;5022306;28;20209;-67
2021/10/26 02:52:59;;;;;;;17.63;11.75;;;;;;;;;;4998425;28;20288;-68
2021/10/26 02:55:26;;;;;;;16.90;11.00;;;;;;;;;;5015162;28;20252;-67
2021/10/26 02:57:53;;;;;;;16.85;11.18;;;;;;;;;;5026277;28;20186;-67
2021/10/26 03:00:21;;;;;;;15.82;11.18;;;;;;;;;;5025054;28;20201;-66
2021/10/26 03:02:48;;;;;;;14.95;11.38;;;;;;;;;;5020603;28;20620;-68
2021/10/26 03:05:15;;;;;;;17.98;10.80;;;;;;;;;;5020102;28;20422;-69
2021/10/26 03:07:43;;;;;;;18.80;11.27;;;;;;;;;;5006884;28;20226;-66
2021/10/26 03:10:10;;;;;;;17.25;11.23;;;;;;;;;;5023994;28;20212;-67
2021/10/26 03:12:36;;;;;;;18.67;11.73;;;;;;;;;;5005446;28;20190;-68
2021/10/26 03:15:06;;;;;;;19.02;11.30;;;;;;;;;;5013706;28;20224;-68
2021/10/26 03:17:34;;;;;;;17.35;11.60;;;;;;;;;;5009550;28;20298;-68
2021/10/26 03:20:13;;;;;;;17.15;11.77;;;;;;;;;;5007338;28;20284;-65
2021/10/26 03:22:40;;;;;;;20.48;11.95;;;;;;;;;;5015132;28;20240;-66
2021/10/26 03:25:08;;;;;;;21.67;11.40;;;;;;;;;;5015583;28;20197;-67
2021/10/26 03:27:35;;;;;;;18.20;12.35;;;;;;;;;;5032299;28;20197;-68
2021/10/26 03:30:05;;;;;;;20.60;12.27;;;;;;;;;;5015765;28;20202;-70
2021/10/26 03:32:32;;;;;;;19.77;13.63;;;;;;;;;;5023136;28;21063;-69
2021/10/26 03:35:22;;;;;;;22.98;13.73;;;;;;;;;;5021447;28;20205;-67
2021/10/26 03:37:49;;;;;;;24.20;13.57;;;;;;;;;;5011869;28;20663;-66
2021/10/26 03:40:16;;;;;;;20.08;12.27;;;;;;;;;;5025948;28;20209;-66
2021/10/26 03:42:43;;;;;;;19.88;12.70;;;;;;;;;;5025977;28;20682;-67
2021/10/26 03:45:10;;;;;;;19.10;12.30;;;;;;;;;;5019914;28;20229;-68
2021/10/26 03:47:38;;;;;;;19.02;12.98;;;;;;;;;;5011041;28;20201;-68
2021/10/26 03:50:07;;;;;;;20.83;12.82;;;;;;;;;;5029077;28;20232;-69
2021/10/26 03:52:34;;;;;;;19.10;11.60;;;;;;;;;;5014614;28;20298;-67
2021/10/26 03:55:01;;;;;;;15.73;11.13;;;;;;;;;;5029865;28;20304;-68
2021/10/26 03:57:28;;;;;;;17.65;11.75;;;;;;;;;;5020209;28;20197;-68
2021/10/26 03:59:55;;;;;;;19.77;11.43;;;;;;;;;;5020708;28;20320;-69
2021/10/26 04:02:28;;;;;;;18.85;12.10;;;;;;;;;;5009747;28;20198;-66
2021/10/26 04:05:02;;;;;;;18.50;10.80;;;;;;;;;;5018104;28;21400;-69
2021/10/26 04:07:32;;;;;;;19.52;11.50;;;;;;;;;;5031605;28;20202;-66
2021/10/26 04:10:06;;;;;;;17.00;10.70;;;;;;;;;;5024153;28;20205;-68
2021/10/26 04:12:35;;;;;;;17.77;10.95;;;;;;;;;;5029017;28;20204;-67
2021/10/26 04:15:04;;;;;;;19.13;11.77;;;;;;;;;;5023968;28;20197;-69
2021/10/26 04:17:32;;;;;;;18.88;11.48;;;;;;;;;;5015228;28;20205;-69
2021/10/26 04:19:59;;;;;;;21.38;11.60;;;;;;;;;;5010258;28;20260;-67
2021/10/26 04:22:29;;;;;;;18.00;11.18;;;;;;;;;;5043384;28;20204;-67
2021/10/26 04:24:56;;;;;;;20.80;12.07;;;;;;;;;;5029391;28;20213;-70
2021/10/26 04:27:25;;;;;;;17.35;11.95;;;;;;;;;;5014747;28;20292;-67
2021/10/26 04:29:52;;;;;;;17.90;11.40;;;;;;;;;;5022421;28;20194;-69
2021/10/26 04:32:21;;;;;;;16.35;11.38;;;;;;;;;;5026662;28;20711;-68
2021/10/26 04:34:59;;;;;;;18.02;12.32;;;;;;;;;;5023094;28;20205;-66
2021/10/26 04:37:26;;;;;;;21.83;12.48;;;;;;;;;;5021816;28;20201;-69
2021/10/26 04:39:53;;;;;;;20.35;12.52;;;;;;;;;;5028942;28;20211;-68
2021/10/26 04:42:22;;;;;;;22.75;13.40;;;;;;;;;;5020971;28;20193;-65
2021/10/26 04:44:49;;;;;;;18.92;13.00;;;;;;;;;;5032380;28;20644;-66
2021/10/26 04:47:22;;;;;;;20.20;13.00;;;;;;;;;;5024510;28;20763;-67
2021/10/26 04:49:49;;;;;;;23.85;12.77;;;;;;;;;;5008443;28;20212;-68
2021/10/26 04:52:16;;;;;;;22.20;12.70;;;;;;;;;;5028798;28;20225;-70
2021/10/26 04:54:44;;;;;;;27.70;14.57;;;;;;;;;;5013457;28;20968;-68
2021/10/26 04:57:11;;;;;;;22.25;14.38;;;;;;;;;;5025683;28;20216;-69
2021/10/26 04:59:56;;;;;;;39.90;27.40;;;;;;;;;;5015371;28;20217;-67
2021/10/26 05:02:25;;;;;;;26.50;16.48;;;;;;;;;;5026651;28;20287;-66
2021/10/26 05:04:52;;;;;;;24.60;13.85;;;;;;;;;;5035690;28;20193;-69
2021/10/26 05:07:19;;;;;;;27.42;14.35;;;;;;;;;;5024109;28;20218;-68
2021/10/26 05:09:46;;;;;;;36.60;13.50;;;;;;;;;;5018860;28;20204;-67
2021/10/26 05:12:13;;;;;;;23.05;14.10;;;;;;;;;;5015089;28;20229;-66
2021/10/26 05:14:39;;;;;;;71.13;45.67;;;;;;;;;;5019685;28;20189;-67
2021/10/26 05:17:30;;;;;;;27.00;16.50;;;;;;;;;;5035117;28;20623;-66
2021/10/26 05:20:14;;;;;;;28.65;15.25;;;;;;;;;;5029610;28;20201;-68
2021/10/26 05:23:09;;;;;;;23.90;15.07;;;;;;;;;;5020148;28;20213;-67
2021/10/26 05:25:56;;;;;;;22.75;14.68;;;;;;;;;;5026024;28;20690;-66
2021/10/26 05:28:34;;;;;;;29.13;15.10;;;;;;;;;;5011001;28;20244;-66
2021/10/26 05:31:00;;;;;;;25.58;14.80;;;;;;;;;;5009115;28;20617;-66
2021/10/26 05:33:27;;;;;;;26.30;15.05;;;;;;;;;;5022299;28;20195;-66
2021/10/26 05:35:54;;;;;;;24.88;14.45;;;;;;;;;;5031423;28;20251;-65
2021/10/26 05:38:21;;;;;;;24.17;14.43;;;;;;;;;;5027289;28;20190;-69
2021/10/26 05:40:48;;;;;;;22.20;14.30;;;;;;;;;;5021557;28;20211;-66
2021/10/26 05:43:15;;;;;;;24.77;14.32;;;;;;;;;;5031831;28;20193;-68
2021/10/26 05:45:45;;;;;;;26.98;16.27;;;;;;;;;;5026774;28;20197;-65
2021/10/26 05:48:15;;;;;;;27.30;16.75;;;;;;;;;;5031216;28;20281;-68
2021/10/26 05:50:43;;;;;;;25.60;16.90;;;;;;;;;;5031658;28;20215;-70
2021/10/26 05:53:10;;;;;;;35.28;17.90;;;;;;;;;;5017692;28;20301;-65
2021/10/26 05:55:42;;;;;;;25.95;17.77;;;;;;;;;;5025844;28;20201;-67
2021/10/26 05:58:11;;;;;;;29.52;18.42;;;;;;;;;;5025596;28;20256;-66
2021/10/26 06:00:39;;;;;;;29.73;17.83;;;;;;;;;;5018637;28;20197;-69
2021/10/26 06:03:06;;;;;;;31.77;18.02;;;;;;;;;;5031248;28;20197;-64
2021/10/26 06:05:34;;;;;;;33.15;18.67;;;;;;;;;;5027477;28;20194;-67
2021/10/26 06:08:01;;;;;;;39.22;18.13;;;;;;;;;;5012385;28;20231;-66
2021/10/26 06:10:29;;;;;;;33.25;18.30;;;;;;;;;;5024986;28;20197;-68
2021/10/26 06:13:00;;;;;;;36.30;19.15;;;;;;;;;;5019262;28;20216;-68
2021/10/26 06:15:27;;;;;;;33.28;19.48;;;;;;;;;;5028027;28;20623;-68
2021/10/26 06:17:53;;;;;;;30.55;19.52;;;;;;;;;;5027869;28;20259;-67
2021/10/26 06:20:27;;;;;;;35.83;18.48;;;;;;;;;;5027256;28;20297;-68
2021/10/26 06:22:54;;;;;;;31.52;18.92;;;;;;;;;;5022889;28;20201;-66
2021/10/26 06:25:21;;;;;;;27.55;17.02;;;;;;;;;;5013974;28;20686;-67
2021/10/26 06:28:08;;;;;;;32.28;17.27;;;;;;;;;;5024509;28;20209;-67
2021/10/26 06:30:36;;;;;;;27.00;17.30;;;;;;;;;;5030655;28;20201;-66
2021/10/26 06:33:09;;;;;;;28.38;17.20;;;;;;;;;;5027063;28;20225;-69
2021/10/26 06:35:43;;;;;;;29.38;16.92;;;;;;;;;;5029663;28;20192;-67
2021/10/26 06:38:10;;;;;;;30.02;17.40;;;;;;;;;;5030636;28;20240;-66
2021/10/26 06:40:37;;;;;;;29.73;17.55;;;;;;;;;;5027252;28;20197;-66
2021/10/26 06:43:22;;;;;;;29.08;17.25;;;;;;;;;;5022904;28;20204;-67
2021/10/26 06:46:07;;;;;;;29.50;18.07;;;;;;;;;;5025316;28;20267;-68
2021/10/26 06:48:58;;;;;;;32.25;17.92;;;;;;;;;;5031099;28;20471;-70
2021/10/26 06:51:43;;;;;;;27.48;17.60;;;;;;;;;;5011952;28;20235;-66
2021/10/26 06:54:36;;;;;;;30.60;17.17;;;;;;;;;;5012994;28;20711;-66
2021/10/26 06:57:42;;;;;;;24.85;15.75;;;;;;;;;;5037607;28;20302;-67
2021/10/26 07:00:38;;;;;;;26.30;16.10;;;;;;;;;;5043633;28;20193;-66
2021/10/26 07:03:24;;;;;;;25.50;15.50;;;;;;;;;;5015260;28;20229;-66
2021/10/26 07:06:06;;;;;;;21.92;14.15;;;;;;;;;;5010195;28;20264;-70
2021/10/26 07:08:53;;;;;;;23.08;14.55;;;;;;;;;;5019859;28;20256;-66
2021/10/26 07:11:30;;;;;;;23.40;14.65;;;;;;;;;;5011458;28;20610;-69
2021/10/26 07:14:03;;;;;;;23.60;14.95;;;;;;;;;;5010615;28;20620;-68
2021/10/26 07:16:31;;;;;;;22.43;15.53;;;;;;;;;;5041485;28;20243;-67
2021/10/26 07:18:58;;;;;;;22.43;15.23;;;;;;;;;;5030554;28;20452;-69
2021/10/26 07:21:26;;;;;;;27.30;14.77;;;;;;;;;;5029822;28;20448;-66
2021/10/26 07:24:22;;;;;;;20.10;14.33;;;;;;;;;;5011659;28;20856;-69
2021/10/26 07:26:56;;;;;;;20.57;13.80;;;;;;;;;;5012745;28;20454;-65
2021/10/26 07:29:25;;;;;;;22.13;12.90;;;;;;;;;;5029971;28;20448;-66
2021/10/26 07:31:54;;;;;;;18.33;12.17;;;;;;;;;;5015696;28;21093;-67
2021/10/26 07:34:22;;;;;;;19.53;13.03;;;;;;;;;;5030039;28;20521;-68
2021/10/26 07:36:51;;;;;;;22.47;12.47;;;;;;;;;;5030368;28;20444;-67
2021/10/26 07:40:04;;;;;;;18.50;12.43;;;;;;;;;;5023373;28;20530;-68
2021/10/26 07:42:05;;;;;;;12.97;10.03;;;;;;;;;;5017592;28;20441;-67
2021/10/26 07:44:38;;;;;;;21.03;12.10;;;;;;;;;;5023505;28;21028;-70
2021/10/26 07:47:16;;;;;;;16.43;11.70;;;;;;;;;;5016267;28;20451;-71
2021/10/26 07:49:46;;;;;;;15.97;11.20;;;;;;;;;;5029370;28;20953;-67
2021/10/26 07:52:14;;;;;;;20.90;11.73;;;;;;;;;;5023052;28;20492;-66
2021/10/26 07:55:19;;;;;;;15.10;11.23;;;;;;;;;;5026645;28;20542;-67
2021/10/26 07:57:54;;;;;;;14.83;10.93;;;;;;;;;;5019749;28;21782;-67
2021/10/26 08:00:24;;;;;;;17.43;11.73;;;;;;;;;;5026574;28;20472;-66
2021/10/26 08:03:11;;;;;;;14.37;11.00;;;;;;;;;;5011183;28;20480;-69
2021/10/26 08:05:54;;;;;;;15.23;10.60;;;;;;;;;;5010740;28;21139;-71
2021/10/26 08:08:25;;;;;;;15.87;11.57;;;;;;;;;;5019669;28;20960;-69
2021/10/26 08:10:55;;;;;;;16.97;10.90;;;;;;;;;;5010628;28;20483;-68
2021/10/26 08:13:21;;;;;;;14.03;10.33;;;;;;;;;;5022917;28;20582;-66
2021/10/26 08:15:48;;;;;;;13.87;10.83;;;;;;;;;;5019846;28;20466;-66
2021/10/26 08:18:15;;;;;;;14.50;10.60;;;;;;;;;;5028891;28;20790;-68
2021/10/26 08:20:44;;;;;;;14.27;11.50;;;;;;;;;;5021729;28;20831;-67
2021/10/26 08:23:12;;;;;;;18.17;12.37;;;;;;;;;;5008721;28;21004;-68
2021/10/26 08:25:47;;;;;;;14.80;11.00;;;;;;;;;;5015342;28;20482;-69
2021/10/26 08:28:16;;;;;;;15.30;11.43;;;;;;;;;;5024858;28;20445;-67
2021/10/26 08:30:57;;;;;;;17.97;11.07;;;;;;;;;;5025174;28;20469;-68
2021/10/26 08:36:03;;;;;;;17.03;11.10;;;;;;;;;;5022378;28;20491;-68
2021/10/26 08:38:31;;;;;;;14.17;11.07;;;;;;;;;;5021863;28;20532;-69
2021/10/26 08:41:06;;;;;;;14.60;10.83;;;;;;;;;;5027363;28;20502;-72
2021/10/26 08:43:33;;;;;;;17.73;11.40;;;;;;;;;;5035993;28;20817;-71
2021/10/26 08:46:06;;;;;;;14.83;10.37;;;;;;;;;;5010936;28;20889;-67
2021/10/26 08:48:40;;;;;;;12.83;9.47;;;;;;;;;;5025527;28;20444;-65
2021/10/26 08:51:31;;;;;;;14.47;9.60;;;;;;;;;;5022513;28;20440;-65
2021/10/26 08:53:58;;;;;;;11.53;9.90;;;;;;;;;;5028447;28;20440;-67
2021/10/26 08:56:48;;;;;;;14.47;8.83;;;;;;;;;;5013148;28;20474;-66
2021/10/26 08:59:44;;;;;;;12.10;8.93;;;;;;;;;;5025068;28;20549;-66
2021/10/26 09:02:11;;;;;;;12.20;8.97;;;;;;;;;;5027398;28;20929;-67
2021/10/26 09:04:39;;;;;;;11.20;9.10;;;;;;;;;;5018260;28;20475;-67
2021/10/26 09:07:18;;;;;;;12.13;8.87;;;;;;;;;;5024552;28;20630;-67
2021/10/26 09:09:47;;;;;;;12.73;9.17;;;;;;;;;;5028270;28;20807;-66
2021/10/26 09:18:07;;;;;;;15.07;9.30;;;;;;;;;;5030727;28;20514;-67
2021/10/26 09:21:23;;;;;;;10.03;9.00;;;;;;;;;;5040745;28;21061;-68
2021/10/26 09:23:51;;;;;;;11.90;8.30;;;;;;;;;;5023626;28;20535;-69
2021/10/26 09:26:41;;;;;;;15.90;9.80;;;;;;;;;;5028612;28;20470;-68
2021/10/26 09:29:11;;;;;;;10.27;8.77;;;;;;;;;;5029501;28;20440;-66
2021/10/26 09:31:40;;;;;;;13.67;9.30;;;;;;;;;;5028828;28;20452;-67
2021/10/26 09:34:11;;;;;;;13.07;9.93;;;;;;;;;;5023454;28;20441;-70
2021/10/26 09:36:39;;;;;;;10.10;8.47;;;;;;;;;;5021484;28;20482;-67
2021/10/26 09:39:06;;;;;;;15.33;12.20;;;;;;;;;;5018924;28;20436;-66
2021/10/26 09:41:37;;;;;;;12.67;10.57;;;;;;;;;;5034099;28;20444;-68
2021/10/26 09:44:11;;;;;;;12.77;9.47;;;;;;;;;;5025980;28;20432;-67
2021/10/26 09:46:39;;;;;;;11.80;8.10;;;;;;;;;;5018027;28;20529;-67
2021/10/26 09:49:19;;;;;;;14.37;11.77;;;;;;;;;;5010214;28;20436;-66
2021/10/26 09:52:06;;;;;;;12.40;9.67;;;;;;;;;;5027439;28;20547;-67
2021/10/26 09:54:33;;;;;;;16.00;11.63;;;;;;;;;;5028960;28;20443;-66
2021/10/26 09:57:07;;;;;;;16.83;15.00;;;;;;;;;;5011584;28;20464;-68
2021/10/26 09:59:35;;;;;;;12.47;9.60;;;;;;;;;;5020660;28;20436;-69
2021/10/26 10:02:02;;;;;;;10.80;8.83;;;;;;;;;;5029238;28;20448;-68
2021/10/26 10:04:32;;;;;;;21.27;14.00;;;;;;;;;;5020861;28;20448;-65
2021/10/26 10:07:00;;;;;;;12.47;10.00;;;;;;;;;;5009312;28;20484;-65
2021/10/26 10:09:27;;;;;;;18.67;11.37;;;;;;;;;;5017106;28;20562;-66
2021/10/26 10:11:56;;;;;;;15.10;9.00;;;;;;;;;;5014893;28;20541;-68
2021/10/26 10:14:23;;;;;;;14.93;12.83;;;;;;;;;;5028942;28;20444;-65
2021/10/26 10:16:54;;;;;;;10.80;9.60;;;;;;;;;;5028524;28;20436;-68
2021/10/26 10:19:21;;;;;;;16.37;11.67;;;;;;;;;;5021897;28;20888;-66
2021/10/26 10:21:50;;;;;;;10.23;8.83;;;;;;;;;;5026631;28;20442;-66
2021/10/26 10:24:19;;;;;;;10.23;8.77;;;;;;;;;;5022179;28;20455;-66
2021/10/26 10:26:50;;;;;;;15.60;12.40;;;;;;;;;;5017862;28;20444;-66
2021/10/26 10:29:20;;;;;;;10.73;7.40;;;;;;;;;;5032725;28;20479;-66
2021/10/26 10:31:48;;;;;;;9.37;7.73;;;;;;;;;;5031672;28;20438;-68
2021/10/26 10:34:18;;;;;;;14.10;7.30;;;;;;;;;;5032245;28;20440;-68
2021/10/26 10:36:46;;;;;;;8.63;6.70;;;;;;;;;;5018443;28;20499;-65
2021/10/26 10:39:14;;;;;;;12.80;7.33;;;;;;;;;;5032022;28;20466;-67
2021/10/26 10:41:42;;;;;;;14.33;12.73;;;;;;;;;;5019709;28;20436;-65
2021/10/26 10:44:21;;;;;;;18.80;8.20;;;;;;;;;;5026219;28;20456;-67
2021/10/26 10:46:53;;;;;;;10.47;8.20;;;;;;;;;;5011740;28;20818;-67
2021/10/26 10:49:42;;;;;;;14.57;9.37;;;;;;;;;;5025099;28;20869;-69
2021/10/26 10:52:10;;;;;;;9.33;7.20;;;;;;;;;;5026122;28;20451;-66
2021/10/26 10:54:37;;;;;;;9.53;7.03;;;;;;;;;;5012426;28;20432;-67
2021/10/26 10:57:24;;;;;;;8.97;6.80;;;;;;;;;;5015058;28;20487;-66
2021/10/26 10:59:51;;;;;;;11.87;7.60;;;;;;;;;;5032167;28;20854;-69
2021/10/26 11:02:25;;;;;;;10.07;7.33;;;;;;;;;;5012674;28;20464;-69
2021/10/26 11:04:54;;;;;;;9.60;6.23;;;;;;;;;;5012209;28;20537;-66
2021/10/26 11:07:40;;;;;;;9.10;6.67;;;;;;;;;;5011351;28;20448;-68
2021/10/26 11:10:13;;;;;;;11.37;7.30;;;;;;;;;;5025372;28;20536;-68
2021/10/26 11:12:42;;;;;;;10.63;7.17;;;;;;;;;;5017464;28;20499;-67
2021/10/26 11:15:10;;;;;;;10.93;6.80;;;;;;;;;;5022614;28;20440;-67
2021/10/26 11:17:40;;;;;;;7.00;6.00;;;;;;;;;;5029817;28;20459;-67
2021/10/26 11:20:09;;;;;;;9.70;7.20;;;;;;;;;;5017640;28;21013;-69
2021/10/26 11:23:01;;;;;;;8.67;6.47;;;;;;;;;;5031044;28;20439;-68
2021/10/26 11:25:32;;;;;;;9.50;6.40;;;;;;;;;;5031702;28;20903;-67
2021/10/26 11:27:59;;;;;;;9.00;6.63;;;;;;;;;;5031285;28;20988;-68
2021/10/26 11:30:28;;;;;;;9.37;6.77;;;;;;;;;;5017096;28;20904;-67
2021/10/26 11:33:14;;;;;;;8.70;7.07;;;;;;;;;;5031040;28;20957;-68
2021/10/26 11:35:49;;;;;;;10.50;7.10;;;;;;;;;;5030034;28;20460;-67
2021/10/26 11:38:17;;;;;;;10.33;6.27;;;;;;;;;;5030870;28;20474;-68
2021/10/26 11:40:50;;;;;;;9.60;6.30;;;;;;;;;;5031618;28;20447;-69
2021/10/26 11:43:19;;;;;;;8.00;5.63;;;;;;;;;;5030645;28;20513;-70
2021/10/26 11:46:00;;;;;;;8.50;6.33;;;;;;;;;;5017219;28;20434;-69
2021/10/26 11:48:37;;;;;;;7.57;5.93;;;;;;;;;;5017201;28;20502;-67
2021/10/26 11:51:22;;;;;;;8.83;6.30;;;;;;;;;;5020773;28;20448;-68
2021/10/26 11:53:54;;;;;;;9.27;5.73;;;;;;;;;;5029786;28;20475;-67
2021/10/26 11:56:26;;;;;;;9.30;6.03;;;;;;;;;;5030759;28;20448;-67
2021/10/26 11:58:58;;;;;;;12.93;7.07;;;;;;;;;;5016797;28;20447;-69
2021/10/26 12:01:36;;;;;;;9.13;6.43;;;;;;;;;;5029337;28;20451;-67
2021/10/26 12:04:05;;;;;;;6.20;4.80;;;;;;;;;;5011828;28;20965;-66
2021/10/26 12:06:35;;;;;;;8.37;5.37;;;;;;;;;;5011749;28;20463;-69
2021/10/26 12:09:04;;;;;;;8.23;5.03;;;;;;;;;;5029062;28;20464;-69
2021/10/26 12:11:34;;;;;;;5.83;4.37;;;;;;;;;;5030818;28;20983;-69
2021/10/26 12:14:18;;;;;;;5.73;4.40;;;;;;;;;;5031445;28;20479;-67
2021/10/26 12:17:04;;;;;;;6.87;3.77;;;;;;;;;;5030648;28;20455;-66
2021/10/26 12:19:31;;;;;;;8.23;5.23;;;;;;;;;;5030945;28;20846;-68
2021/10/26 12:21:58;;;;;;;10.03;4.70;;;;;;;;;;5030293;28;20444;-70
2021/10/26 12:24:26;;;;;;;4.37;3.80;;;;;;;;;;5030663;28;20466;-69
2021/10/26 12:26:57;;;;;;;9.20;6.33;;;;;;;;;;5015967;28;20440;-68
2021/10/26 12:29:29;;;;;;;7.13;3.77;;;;;;;;;;5021724;28;20441;-66
2021/10/26 12:31:56;;;;;;;5.07;3.63;;;;;;;;;;5025429;28;20440;-69
2021/10/26 12:34:23;;;;;;;5.40;2.97;;;;;;;;;;5022416;28;20606;-67
2021/10/26 12:36:50;;;;;;;8.10;3.30;;;;;;;;;;5024285;28;20673;-67
2021/10/26 12:39:23;;;;;;;6.37;3.10;;;;;;;;;;5030617;28;20450;-69
2021/10/26 12:41:50;;;;;;;3.10;2.67;;;;;;;;;;5015645;28;20989;-66
2021/10/26 12:44:23;;;;;;;4.93;2.70;;;;;;;;;;5025123;28;20205;-68
2021/10/26 12:47:03;;;;;;;3.13;2.83;;;;;;;;;;5022499;28;20189;-66
2021/10/26 12:49:37;;;;;;;7.73;2.50;;;;;;;;;;5020695;28;20214;-73
2021/10/26 12:52:23;;;;;;;4.60;3.10;;;;;;;;;;5013806;28;20608;-72
2021/10/26 12:54:50;;;;;;;6.07;2.90;;;;;;;;;;5026471;28;20221;-68
2021/10/26 12:57:33;;;;;;;4.80;3.30;;;;;;;;;;5029788;28;20204;-67
2021/10/26 13:00:19;;;;;;;3.60;2.43;;;;;;;;;;5030529;28;20204;-67
2021/10/26 13:02:46;;;;;;;3.27;2.57;;;;;;;;;;5021293;28;20198;-67
2021/10/26 13:05:12;;;;;;;4.93;2.50;;;;;;;;;;5024478;28;20364;-70
2021/10/26 13:07:39;;;;;;;7.17;3.17;;;;;;;;;;5010009;28;20720;-69
2021/10/26 13:10:08;;;;;;;3.27;2.60;;;;;;;;;;5010707;28;20200;-67
2021/10/26 13:12:39;;;;;;;4.27;3.27;;;;;;;;;;5015951;28;20189;-68
2021/10/26 13:15:10;;;;;;;5.17;3.07;;;;;;;;;;5020853;28;20255;-67
2021/10/26 13:17:41;;;;;;;8.67;3.83;;;;;;;;;;5029510;28;20339;-66
2021/10/26 13:20:33;;;;;;;4.23;2.70;;;;;;;;;;5016093;28;20201;-66
2021/10/26 13:23:02;;;;;;;4.47;3.33;;;;;;;;;;5029021;28;20193;-68
2021/10/26 13:25:29;;;;;;;3.93;2.90;;;;;;;;;;5024238;28;20194;-69
2021/10/26 13:27:56;;;;;;;4.13;3.30;;;;;;;;;;5009490;28;20672;-68
2021/10/26 13:30:26;;;;;;;5.03;2.77;;;;;;;;;;5026634;28;20196;-67
2021/10/26 13:32:53;;;;;;;5.83;2.80;;;;;;;;;;5019597;28;20263;-66
2021/10/26 13:35:20;;;;;;;8.17;2.70;;;;;;;;;;5023888;28;20208;-67
2021/10/26 13:37:46;;;;;;;5.57;2.50;;;;;;;;;;5009626;28;20214;-74
2021/10/26 13:40:13;;;;;;;5.40;2.60;;;;;;;;;;5023739;28;20197;-66
2021/10/26 13:42:40;;;;;;;2.63;2.37;;;;;;;;;;5010996;28;20194;-69
2021/10/26 13:45:07;;;;;;;3.73;3.10;;;;;;;;;;5022768;28;20211;-65
2021/10/26 13:47:44;;;;;;;7.40;3.23;;;;;;;;;;5021965;28;20214;-66
2021/10/26 13:50:11;;;;;;;6.53;3.33;;;;;;;;;;5014091;28;20224;-67
2021/10/26 13:52:39;;;;;;;7.07;3.40;;;;;;;;;;5031353;28;20686;-68
2021/10/26 13:55:06;;;;;;;4.87;2.93;;;;;;;;;;5018869;28;20268;-68
2021/10/26 13:57:36;;;;;;;5.87;3.27;;;;;;;;;;5021092;28;20196;-65
2021/10/26 14:00:08;;;;;;;5.30;3.33;;;;;;;;;;5019642;28;20664;-68
2021/10/26 14:02:39;;;;;;;6.10;3.00;;;;;;;;;;5026442;28;20239;-67
2021/10/26 14:05:08;;;;;;;8.37;3.93;;;;;;;;;;5027215;28;20547;-65
2021/10/26 14:07:35;;;;;;;8.00;4.57;;;;;;;;;;5032879;28;20203;-67
2021/10/26 14:10:03;;;;;;;5.60;4.00;;;;;;;;;;5021222;28;20206;-66
2021/10/26 14:12:31;;;;;;;7.27;4.13;;;;;;;;;;5031638;28;20721;-69
2021/10/26 14:14:59;;;;;;;6.43;4.30;;;;;;;;;;5031082;28;21019;-68
2021/10/26 14:17:26;;;;;;;5.10;3.80;;;;;;;;;;5021915;28;20448;-68
2021/10/26 14:19:53;;;;;;;8.70;4.10;;;;;;;;;;5023261;28;20445;-70
2021/10/26 14:22:21;;;;;;;5.07;3.70;;;;;;;;;;5026818;28;20441;-70
2021/10/26 14:24:48;;;;;;;8.70;3.90;;;;;;;;;;5030455;28;20443;-68
2021/10/26 14:27:18;;;;;;;5.97;4.53;;;;;;;;;;5030030;28;20451;-69
2021/10/26 14:29:45;;;;;;;7.77;3.70;;;;;;;;;;5020793;28;20449;-65
2021/10/26 14:32:12;;;;;;;10.23;3.63;;;;;;;;;;5027294;28;20436;-66
2021/10/26 14:34:42;;;;;;;7.40;3.60;;;;;;;;;;5029742;28;20482;-68
2021/10/26 14:58:28;;;;;;;10.30;4.47;;;;;;;;;;5029946;28;20443;-70
2021/10/26 15:00:55;;;;;;;5.97;4.83;;;;;;;;;;5016257;28;20475;-71
2021/10/26 15:03:23;;;;;;;7.70;5.00;;;;;;;;;;5028783;28;20440;-69
2021/10/26 15:05:50;;;;;;;6.13;5.00;;;;;;;;;;5010843;28;20454;-70
2021/10/26 15:08:17;;;;;;;9.53;5.30;;;;;;;;;;5014071;28;20477;-71
2021/10/26 15:10:58;;;;;;;7.57;5.00;;;;;;;;;;5011687;28;20437;-69
2021/10/26 15:13:35;;;;;;;7.73;5.53;;;;;;;;;;5017083;28;20465;-69
2021/10/26 15:16:07;;;;;;;11.43;5.53;;;;;;;;;;5012338;28;20436;-71
2021/10/26 15:18:36;;;;;;;9.70;5.30;;;;;;;;;;5030095;28;20439;-69
2021/10/26 15:21:08;;;;;;;9.73;5.90;;;;;;;;;;5031863;28;20436;-69